Time;durP1;ratioP1;P1;durP2;ratioP2;P2;SDS_P1;SDS_P2;PMS_P1;PMS_P2;Temp;Humidity;BMP_temperature;BMP_pressure;BME280_temperature;BME280_humidity;BME280_pressure;Samples;Min_cycle;Max_cycle;Signal;HPM_P1;HPM_P2
2022/12/01 00:01:13;;;;;;;14.70;7.43;;;;;;;4.47;82.14;98566.56;5169425;27;20133;-93
2022/12/01 00:03:39;;;;;;;14.07;7.00;;;;;;;4.45;81.95;98569.19;5181606;27;20046;-94
2022/12/01 00:06:09;;;;;;;16.35;8.30;;;;;;;4.48;81.56;98569.16;5158512;27;20453;-94
2022/12/01 00:08:35;;;;;;;18.98;8.95;;;;;;;4.43;82.19;98564.84;5144748;27;20037;-95
2022/12/01 00:11:08;;;;;;;18.17;9.65;;;;;;;4.52;81.74;98565.63;5150755;27;20039;-93
2022/12/01 00:13:34;;;;;;;14.98;7.90;;;;;;;4.56;81.44;98568.28;5157628;27;20047;-94
2022/12/01 00:16:09;;;;;;;14.27;7.88;;;;;;;4.51;82.25;98565.63;5159153;27;20046;-94
2022/12/01 00:18:35;;;;;;;16.33;7.55;;;;;;;4.51;81.95;98571.81;5158253;27;20074;-94
2022/12/01 00:21:01;;;;;;;15.90;7.50;;;;;;;4.72;81.41;98596.25;5159366;27;20043;-96
2022/12/01 00:23:27;;;;;;;15.48;8.27;;;;;;;4.58;81.83;98563.88;5158849;27;20050;-94
2022/12/01 00:25:53;;;;;;;14.45;7.53;;;;;;;4.53;81.67;98556.88;5160922;27;20043;-95
2022/12/01 00:28:23;;;;;;;15.27;7.33;;;;;;;4.63;81.70;98570.84;5163361;27;20034;-95
2022/12/01 00:30:49;;;;;;;14.93;7.40;;;;;;;4.55;81.53;98551.56;5138236;27;20273;-96
2022/12/01 00:33:15;;;;;;;15.98;8.00;;;;;;;4.79;81.25;98594.44;5131038;27;20063;-95
2022/12/01 00:35:41;;;;;;;13.82;6.97;;;;;;;4.62;81.38;98562.94;5136652;27;20103;-95
2022/12/01 00:38:07;;;;;;;14.48;7.65;;;;;;;4.50;81.26;98553.38;5162773;27;20107;-96
2022/12/01 00:40:32;;;;;;;14.32;7.18;;;;;;;4.59;81.43;98563.84;5145230;27;20030;-95
2022/12/01 00:42:58;;;;;;;13.73;7.45;;;;;;;4.47;81.47;98556.03;5147472;27;20047;-95
2022/12/01 00:45:26;;;;;;;14.77;6.93;;;;;;;4.53;81.13;98563.88;5159294;27;20048;-95
2022/12/01 00:47:52;;;;;;;15.27;7.80;;;;;;;4.49;81.11;98560.41;5144054;27;20050;-95
2022/12/01 00:50:18;;;;;;;13.45;7.32;;;;;;;4.44;81.66;98570.06;5145063;27;20051;-94
2022/12/01 00:52:44;;;;;;;14.70;6.82;;;;;;;4.53;80.95;98559.50;5148304;27;20039;-95
2022/12/01 00:55:10;;;;;;;20.08;6.95;;;;;;;4.58;80.43;98564.72;5142301;27;20043;-94
2022/12/01 00:57:36;;;;;;;13.40;6.70;;;;;;;4.60;80.63;98573.50;5145150;27;20085;-93
2022/12/01 01:00:03;;;;;;;14.43;7.22;;;;;;;4.69;80.93;98586.59;5145444;27;20040;-95
2022/12/01 01:02:30;;;;;;;13.88;6.88;;;;;;;4.61;80.75;98563.84;5145411;27;20062;-94
2022/12/01 01:04:56;;;;;;;15.50;6.90;;;;;;;4.80;79.96;98590.94;5146920;27;20062;-95
2022/12/01 01:07:22;;;;;;;14.15;7.50;;;;;;;4.57;80.48;98552.44;5130242;27;20062;-95
2022/12/01 01:09:48;;;;;;;9.95;6.07;;;;;;;4.59;80.11;98565.59;5156444;27;20043;-95
2022/12/01 01:12:13;;;;;;;13.65;6.80;;;;;;;4.56;79.83;98563.88;5146892;27;20133;-95
2022/12/01 01:14:39;;;;;;;13.02;6.07;;;;;;;4.58;80.32;98577.03;5159961;27;20045;-95
2022/12/01 01:17:05;;;;;;;13.68;7.10;;;;;;;4.43;80.23;98559.56;5149685;27;20046;-95
2022/12/01 01:19:35;;;;;;;14.82;7.50;;;;;;;4.36;80.73;98552.56;5143995;27;20077;-95
2022/12/01 01:22:01;;;;;;;13.95;7.32;;;;;;;4.38;80.77;98562.22;5144635;27;20050;-95
2022/12/01 01:24:27;;;;;;;14.10;7.57;;;;;;;4.35;80.52;98556.09;5152347;27;20046;-95
2022/12/01 01:26:54;;;;;;;15.05;7.50;;;;;;;4.36;80.59;98560.47;5150011;27;20026;-95
2022/12/01 01:29:20;;;;;;;16.35;7.80;;;;;;;4.45;80.14;98578.88;5155303;27;20039;-94
2022/12/01 01:31:49;;;;;;;14.55;7.80;;;;;;;4.43;80.36;98570.09;5160823;27;20073;-95
2022/12/01 01:34:15;;;;;;;13.00;7.22;;;;;;;4.39;80.49;98560.47;5147520;27;20072;-95
2022/12/01 01:36:43;;;;;;;15.20;7.20;;;;;;;4.46;79.85;98562.16;5145991;27;20039;-96
2022/12/01 01:39:09;;;;;;;13.38;6.47;;;;;;;4.60;78.94;98573.50;5138955;27;20081;-93
2022/12/01 01:41:35;;;;;;;14.98;7.57;;;;;;;4.47;79.64;98559.53;5143184;27;20054;-95
2022/12/01 01:44:02;;;;;;;11.77;6.03;;;;;;;4.62;79.11;98576.09;5153487;27;20043;-94
2022/12/01 01:46:30;;;;;;;11.60;6.00;;;;;;;4.61;79.11;98593.66;5143970;27;20066;-95
2022/12/01 01:48:59;;;;;;;13.35;7.03;;;;;;;4.46;79.18;98554.28;5139833;27;20044;-95
2022/12/01 01:51:28;;;;;;;13.65;6.75;;;;;;;4.53;78.67;98564.75;5140091;27;20077;-95
2022/12/01 01:54:00;;;;;;;15.30;7.50;;;;;;;4.51;79.04;98563.00;5151570;27;20039;-94
2022/12/01 01:56:26;;;;;;;12.63;6.72;;;;;;;4.41;79.12;98558.69;5135298;27;20054;-95
2022/12/01 01:58:56;;;;;;;14.48;6.40;;;;;;;4.33;79.66;98559.59;5135927;27;20039;-94
2022/12/01 02:01:22;;;;;;;13.15;6.70;;;;;;;4.43;79.86;98591.16;5135929;27;20043;-94
2022/12/01 02:03:51;;;;;;;14.02;6.70;;;;;;;4.40;79.34;98583.25;5154786;27;20079;-93
2022/12/01 02:06:17;;;;;;;15.25;7.30;;;;;;;4.05;80.55;98558.84;5146217;27;20040;-94
2022/12/01 02:08:43;;;;;;;12.80;7.18;;;;;;;3.97;81.37;98559.75;5143981;27;20055;-94
2022/12/01 02:11:50;;;;;;;15.55;7.78;;;;;;;4.05;81.98;98597.44;5157051;27;20070;-94
2022/12/01 02:14:32;;;;;;;18.88;8.27;;;;;;;3.89;81.60;98563.31;5119727;27;20049;-95
2022/12/01 02:17:06;;;;;;;13.63;6.93;;;;;;;3.99;81.37;98568.53;5131881;27;20067;-95
2022/12/01 02:19:51;;;;;;;14.45;7.32;;;;;;;4.01;81.56;98595.72;5150248;27;20104;-93
2022/12/01 02:22:25;;;;;;;16.65;7.85;;;;;;;3.95;81.92;98588.72;5140629;27;20504;-95
2022/12/01 02:25:26;;;;;;;13.30;7.03;;;;;;;3.92;81.59;98567.69;5147311;27;20062;-94
2022/12/01 02:28:21;;;;;;;13.95;7.05;;;;;;;3.91;81.90;98574.69;5131346;27;20039;-94
2022/12/01 02:30:52;;;;;;;15.23;7.65;;;;;;;3.87;82.30;98582.63;5137095;27;20047;-93
2022/12/01 02:33:24;;;;;;;13.48;7.97;;;;;;;3.81;82.62;98574.75;5133585;27;20519;-94
2022/12/01 02:35:59;;;;;;;13.30;7.15;;;;;;;3.75;82.00;98557.22;5138967;27;20063;-93
2022/12/01 02:38:31;;;;;;;14.93;7.63;;;;;;;3.83;82.72;98581.75;5146228;27;20087;-93
2022/12/01 02:41:06;;;;;;;15.38;6.88;;;;;;;3.78;82.10;98554.59;5142167;27;20039;-95
2022/12/01 02:43:42;;;;;;;14.98;7.68;;;;;;;4.02;81.66;98585.19;5135169;27;20069;-94
2022/12/01 02:46:14;;;;;;;11.65;6.82;;;;;;;3.93;80.94;98537.00;5120421;27;20048;-95
2022/12/01 02:48:45;;;;;;;13.75;6.97;;;;;;;4.11;80.79;98564.09;5123495;27;20046;-95
2022/12/01 02:51:16;;;;;;;14.18;7.35;;;;;;;3.95;80.86;98543.13;5121629;28;20114;-94
2022/12/01 02:53:46;;;;;;;14.63;6.75;;;;;;;4.13;80.74;98571.13;5158210;27;20042;-95
2022/12/01 02:56:14;;;;;;;12.88;6.43;;;;;;;3.96;80.55;98531.72;5157066;27;20042;-95
2022/12/01 02:58:41;;;;;;;12.67;6.60;;;;;;;4.09;80.12;98550.06;5127952;27;20072;-94
2022/12/01 03:01:22;;;;;;;12.45;6.22;;;;;;;4.13;80.01;98542.19;5152451;27;20492;-95
2022/12/01 03:04:29;;;;;;;13.77;6.80;;;;;;;4.29;79.54;98568.41;5121104;28;20075;-94
2022/12/01 03:07:03;;;;;;;13.60;6.68;;;;;;;4.32;79.96;98573.66;5119641;28;20073;-94
2022/12/01 03:09:40;;;;;;;14.13;6.93;;;;;;;4.15;79.59;98543.03;5132245;27;20043;-94
2022/12/01 03:12:19;;;;;;;12.70;6.88;;;;;;;4.22;79.31;98550.03;5141566;27;20062;-94
2022/12/01 03:14:56;;;;;;;12.27;6.35;;;;;;;4.11;79.37;98544.81;5140295;27;20039;-93
2022/12/01 03:17:28;;;;;;;15.15;6.38;;;;;;;4.03;80.02;98550.09;5143001;27;20451;-96
2022/12/01 03:19:59;;;;;;;12.35;6.65;;;;;;;3.89;80.20;98534.38;5118663;28;20047;-93
2022/12/01 03:22:32;;;;;;;13.65;7.35;;;;;;;3.89;80.29;98536.13;5119071;28;20043;-96
2022/12/01 03:25:00;;;;;;;11.93;6.43;;;;;;;4.02;80.00;98552.75;5120447;28;20046;-94
2022/12/01 03:27:31;;;;;;;13.82;7.05;;;;;;;4.00;79.67;98533.47;5121155;28;20500;-94
2022/12/01 03:30:00;;;;;;;11.02;6.53;;;;;;;3.97;79.89;98542.25;5131476;27;20043;-94
2022/12/01 03:32:32;;;;;;;11.15;6.82;;;;;;;3.88;80.42;98527.38;5156492;27;20043;-95
2022/12/01 03:35:03;;;;;;;10.98;6.18;;;;;;;3.96;79.97;98534.34;5161954;27;20050;-94
2022/12/01 03:37:34;;;;;;;12.10;6.82;;;;;;;3.89;80.37;98533.50;5162472;27;20064;-94
2022/12/01 03:40:05;;;;;;;12.75;6.38;;;;;;;4.05;79.14;98523.78;5136913;27;20067;-93
2022/12/01 03:42:36;;;;;;;13.57;6.88;;;;;;;4.13;79.77;98550.94;5121630;28;20058;-96
2022/12/01 03:45:06;;;;;;;15.13;6.57;;;;;;;3.93;79.81;98526.50;5122503;28;20044;-94
2022/12/01 03:47:36;;;;;;;13.90;6.75;;;;;;;4.05;78.93;98527.28;5156199;27;20039;-94
2022/12/01 03:50:05;;;;;;;13.90;6.82;;;;;;;4.35;78.58;98564.00;5138274;27;20092;-95
2022/12/01 03:52:43;;;;;;;9.75;5.43;;;;;;;4.20;78.80;98531.59;5141169;27;20593;-95
2022/12/01 03:55:13;;;;;;;11.73;6.30;;;;;;;4.38;78.54;98563.97;5141366;28;20068;-95
2022/12/01 03:57:45;;;;;;;12.27;5.88;;;;;;;4.46;77.75;98560.41;5154496;27;20519;-95
2022/12/01 04:00:14;;;;;;;11.80;6.03;;;;;;;4.36;78.00;98544.66;5142593;28;20047;-96
2022/12/01 04:02:43;;;;;;;11.23;6.43;;;;;;;4.26;78.23;98536.81;5143929;27;20095;-95
2022/12/01 04:05:10;;;;;;;11.18;5.88;;;;;;;4.27;78.18;98538.59;5148244;27;20039;-95
2022/12/01 04:07:37;;;;;;;10.27;5.53;;;;;;;4.27;78.15;98533.34;5149786;27;20053;-96
2022/12/01 04:10:05;;;;;;;10.57;5.75;;;;;;;4.28;78.20;98531.56;5145567;27;20043;-96
2022/12/01 04:12:32;;;;;;;9.07;5.07;;;;;;;4.15;79.11;98527.25;5147495;27;20035;-95
2022/12/01 04:15:00;;;;;;;13.90;5.88;;;;;;;4.22;78.98;98540.34;5147503;27;20039;-95
2022/12/01 04:17:27;;;;;;;11.07;6.30;;;;;;;4.21;78.89;98538.63;5145386;27;20051;-95
2022/12/01 04:19:54;;;;;;;9.85;5.85;;;;;;;4.21;78.69;98536.00;5154904;27;20050;-95
2022/12/01 04:22:21;;;;;;;10.68;6.03;;;;;;;4.32;78.96;98552.59;5129847;27;20040;-96
2022/12/01 04:24:47;;;;;;;14.20;6.32;;;;;;;4.46;78.82;98564.78;5126081;28;20050;-95
2022/12/01 04:27:13;;;;;;;11.40;5.72;;;;;;;4.44;78.34;98562.16;5159201;27;20483;-96
2022/12/01 04:29:39;;;;;;;10.43;5.78;;;;;;;4.37;78.39;98543.78;5146328;27;20064;-95
2022/12/01 04:32:05;;;;;;;10.52;5.75;;;;;;;4.29;79.33;98536.84;5152591;27;20130;-94
2022/12/01 04:34:32;;;;;;;9.02;5.20;;;;;;;4.11;80.52;98547.44;5148659;27;20500;-96
2022/12/01 04:36:59;;;;;;;10.88;6.10;;;;;;;3.88;82.17;98556.31;5155168;27;20038;-96
2022/12/01 04:39:25;;;;;;;14.23;5.95;;;;;;;3.61;83.21;98549.38;5143124;27;20034;-94
2022/12/01 04:41:51;;;;;;;11.57;5.95;;;;;;;3.35;85.50;98549.44;5131918;27;20119;-96
2022/12/01 04:44:17;;;;;;;11.75;6.38;;;;;;;3.32;85.13;98554.72;5129851;27;20042;-96
2022/12/01 04:46:43;;;;;;;11.25;6.10;;;;;;;3.04;86.72;98545.97;5142350;27;20038;-94
2022/12/01 04:49:09;;;;;;;13.02;6.30;;;;;;;2.98;87.61;98544.22;5146595;27;20047;-96
2022/12/01 04:51:35;;;;;;;12.10;6.28;;;;;;;2.87;87.94;98544.22;5145409;27;20046;-96
2022/12/01 04:54:04;;;;;;;14.60;6.50;;;;;;;2.99;87.94;98539.84;5138850;27;20492;-96
2022/12/01 04:56:31;;;;;;;10.27;5.65;;;;;;;3.19;87.49;98543.34;5143420;27;20492;-96
2022/12/01 04:58:58;;;;;;;13.00;6.93;;;;;;;3.39;86.44;98556.44;5143827;27;20488;-94
2022/12/01 05:01:24;;;;;;;13.35;6.25;;;;;;;3.24;86.95;98530.19;5146012;27;20039;-94
2022/12/01 05:03:50;;;;;;;12.20;6.32;;;;;;;3.55;86.60;98566.91;5149089;27;20523;-94
2022/12/01 05:06:18;;;;;;;12.35;6.30;;;;;;;3.37;85.63;98531.03;5144031;27;20040;-93
2022/12/01 05:08:44;;;;;;;11.93;5.80;;;;;;;3.55;86.43;98556.41;5145094;27;20036;-94
2022/12/01 05:11:13;;;;;;;12.23;6.13;;;;;;;3.63;85.11;98541.50;5145608;27;20488;-92
2022/12/01 05:13:40;;;;;;;12.63;7.05;;;;;;;3.81;84.22;98567.72;5157910;27;20518;-94
2022/12/01 05:16:07;;;;;;;13.90;6.50;;;;;;;3.73;84.34;98564.25;5134521;27;20416;-93
2022/12/01 05:18:33;;;;;;;15.40;7.90;;;;;;;3.74;84.25;98571.25;5174372;27;20051;-95
2022/12/01 05:20:59;;;;;;;12.85;7.20;;;;;;;3.69;84.06;98566.00;5127513;27;20500;-94
2022/12/01 05:23:26;;;;;;;16.33;6.88;;;;;;;3.50;84.46;98544.16;5122122;27;20050;-94
2022/12/01 05:25:53;;;;;;;14.73;7.55;;;;;;;3.46;84.01;98541.53;5123728;27;20139;-95
2022/12/01 05:28:22;;;;;;;14.57;6.53;;;;;;;3.33;85.68;98556.44;5138518;27;20027;-94
2022/12/01 05:30:48;;;;;;;;;;;;;;;3.47;86.32;98585.31;5123378;27;20104;-94
2022/12/01 05:33:14;;;;;;;11.52;6.20;;;;;;;3.30;86.44;98545.94;5143239;27;20014;-94
2022/12/01 05:35:40;;;;;;;11.38;6.30;;;;;;;3.39;86.25;98547.69;5142239;27;20043;-94
2022/12/01 05:38:07;;;;;;;13.52;6.85;;;;;;;3.46;85.89;98544.16;5145960;27;20043;-95
2022/12/01 05:40:33;;;;;;;12.00;6.22;;;;;;;3.63;84.98;98541.50;5141935;27;20058;-95
2022/12/01 05:42:59;;;;;;;12.43;6.57;;;;;;;3.70;85.14;98572.13;5135410;27;20073;-95
2022/12/01 05:45:27;;;;;;;11.35;5.68;;;;;;;3.55;85.82;98545.88;5133169;27;20027;-93
2022/12/01 05:47:54;;;;;;;14.30;6.70;;;;;;;3.72;85.80;98577.41;5132459;27;20050;-95
2022/12/01 05:50:20;;;;;;;14.35;6.57;;;;;;;3.59;86.05;98545.88;5149498;27;20049;-92
2022/12/01 05:52:46;;;;;;;12.20;6.10;;;;;;;3.71;84.74;98534.47;5141746;27;20043;-93
2022/12/01 05:55:12;;;;;;;12.80;6.35;;;;;;;3.83;84.52;98537.03;5149483;27;20047;-94
2022/12/01 05:57:38;;;;;;;12.73;5.70;;;;;;;3.93;84.33;98544.91;5165417;27;20039;-93
2022/12/01 06:00:06;;;;;;;11.05;6.18;;;;;;;3.91;84.63;98561.56;5162421;27;20404;-96
2022/12/01 06:02:34;;;;;;;11.05;5.70;;;;;;;3.80;84.75;98544.94;5139518;27;20043;-93
2022/12/01 06:05:00;;;;;;;10.88;6.03;;;;;;;4.03;84.59;98575.53;5156472;27;20397;-94
2022/12/01 06:07:26;;;;;;;11.68;6.50;;;;;;;4.13;84.56;98582.53;5138395;27;20139;-95
2022/12/01 06:09:52;;;;;;;12.88;6.57;;;;;;;4.01;83.85;98535.19;5134808;27;20044;-95
2022/12/01 06:12:18;;;;;;;13.13;6.53;;;;;;;3.99;84.27;98536.97;5157939;27;20047;-94
2022/12/01 06:14:45;;;;;;;12.68;6.28;;;;;;;3.85;84.16;98543.16;5146059;27;20138;-95
2022/12/01 06:17:13;;;;;;;11.85;6.80;;;;;;;3.76;85.33;98547.59;5127673;27;20043;-94
2022/12/01 06:19:42;;;;;;;13.55;6.80;;;;;;;3.80;85.33;98536.19;5121805;28;20039;-94
2022/12/01 06:22:08;;;;;;;12.32;6.53;;;;;;;3.98;83.85;98532.59;5136170;27;20042;-95
2022/12/01 06:24:34;;;;;;;13.38;6.45;;;;;;;3.98;84.18;98545.75;5164011;27;20039;-96
2022/12/01 06:27:00;;;;;;;11.82;6.18;;;;;;;3.94;85.43;98549.28;5164293;27;20157;-95
2022/12/01 06:29:26;;;;;;;11.80;6.82;;;;;;;4.00;84.23;98584.31;5159057;27;20492;-96
2022/12/01 06:31:52;;;;;;;11.85;6.97;;;;;;;3.64;85.45;98556.38;5161455;27;20046;-96
2022/12/01 06:34:18;;;;;;;12.55;7.00;;;;;;;3.65;85.86;98563.41;5158533;27;20046;-94
2022/12/01 06:36:45;;;;;;;14.40;6.90;;;;;;;3.61;87.55;98587.94;5137981;27;20031;-95
2022/12/01 06:39:14;;;;;;;13.27;6.97;;;;;;;3.42;87.46;98555.56;5138573;27;20381;-93
2022/12/01 06:41:40;;;;;;;14.80;7.70;;;;;;;3.35;87.97;98575.72;5130909;27;20069;-95
2022/12/01 06:44:05;;;;;;;14.57;7.60;;;;;;;3.29;88.37;98567.84;5136306;27;20047;-94
2022/12/01 06:46:31;;;;;;;13.45;7.38;;;;;;;3.23;89.37;98566.13;5139210;27;20453;-96
2022/12/01 06:48:57;;;;;;;14.38;7.63;;;;;;;3.40;89.17;98609.88;5137898;27;20047;-95
2022/12/01 06:51:23;;;;;;;15.90;7.07;;;;;;;3.15;90.03;98573.13;5129918;27;20051;-95
2022/12/01 06:53:55;;;;;;;13.55;7.07;;;;;;;3.03;90.56;98563.47;5127519;27;20043;-95
2022/12/01 06:56:22;;;;;;;15.38;7.03;;;;;;;3.15;90.87;98577.50;5158648;27;20053;-96
2022/12/01 06:58:49;;;;;;;16.08;8.32;;;;;;;3.45;89.15;98609.00;5140810;27;20041;-96
2022/12/01 07:01:15;;;;;;;17.10;7.93;;;;;;;3.16;89.68;98580.09;5134068;27;20130;-94
2022/12/01 07:03:42;;;;;;;14.75;8.70;;;;;;;3.18;90.52;98594.13;5134329;27;20077;-93
2022/12/01 07:06:08;;;;;;;13.82;7.55;;;;;;;3.07;91.21;98591.50;5139417;27;20039;-94
2022/12/01 07:08:34;;;;;;;15.05;7.63;;;;;;;3.28;91.63;98621.28;5152467;27;20129;-94
2022/12/01 07:11:04;;;;;;;16.38;7.95;;;;;;;3.04;91.94;98588.88;5158899;27;20042;-95
2022/12/01 07:13:30;;;;;;;15.05;7.38;;;;;;;3.16;92.53;98600.25;5144085;27;20408;-96
2022/12/01 07:15:56;;;;;;;15.10;7.57;;;;;;;3.39;92.71;98623.91;5145444;27;20044;-96
2022/12/01 07:18:22;;;;;;;14.30;8.07;;;;;;;3.50;92.71;98622.16;5141104;27;20430;-95
2022/12/01 07:20:48;;;;;;;17.63;7.68;;;;;;;3.40;92.10;98608.13;5138166;27;20058;-96
2022/12/01 07:23:14;;;;;;;16.25;7.43;;;;;;;3.60;91.92;98621.25;5137104;27;20500;-94
2022/12/01 07:25:40;;;;;;;16.85;7.28;;;;;;;3.68;92.05;98618.59;5133140;27;20536;-93
2022/12/01 07:28:07;;;;;;;16.60;8.40;;;;;;;3.94;91.51;98638.72;5148830;27;20069;-94
2022/12/01 07:30:33;;;;;;;13.02;7.03;;;;;;;3.97;88.91;98604.50;5138800;27;20054;-95
2022/12/01 07:32:59;;;;;;;15.57;7.85;;;;;;;4.14;88.27;98618.47;5136147;27;20063;-96
2022/12/01 07:35:25;;;;;;;13.15;7.63;;;;;;;4.19;87.77;98613.22;5137227;28;20495;-94
2022/12/01 07:37:53;;;;;;;14.55;7.07;;;;;;;4.45;88.41;98645.56;5144766;27;20107;-94
2022/12/01 07:40:19;;;;;;;13.38;7.32;;;;;;;4.54;87.87;98644.63;5121184;27;20043;-94
2022/12/01 07:42:45;;;;;;;17.70;7.50;;;;;;;4.68;87.22;98641.91;5139520;27;20040;-95
2022/12/01 07:45:12;;;;;;;14.02;7.15;;;;;;;4.79;87.12;98632.19;5129946;27;20056;-95
2022/12/01 07:47:38;;;;;;;15.50;7.63;;;;;;;5.07;86.44;98658.38;5136173;27;20049;-93
2022/12/01 07:50:05;;;;;;;13.95;8.05;;;;;;;5.20;84.15;98638.06;5139864;27;20039;-96
2022/12/01 07:52:31;;;;;;;16.98;7.75;;;;;;;5.30;83.64;98627.44;5142906;27;20095;-95
2022/12/01 07:54:57;;;;;;;17.23;8.32;;;;;;;5.48;83.41;98633.44;5146342;27;20066;-94
2022/12/01 07:57:26;;;;;;;16.77;7.93;;;;;;;5.72;82.27;98646.41;5140055;27;20067;-95
2022/12/01 07:59:52;;;;;;;18.03;7.93;;;;;;;5.82;82.08;98644.56;5125792;27;20485;-95
2022/12/01 08:02:19;;;;;;;15.00;7.50;;;;;;;5.96;82.04;98647.97;5127740;27;20089;-96
2022/12/01 08:04:45;;;;;;;17.23;8.27;;;;;;;6.08;82.69;98643.44;5159474;27;20043;-95
2022/12/01 08:07:11;;;;;;;17.60;8.70;;;;;;;6.16;81.08;98623.13;5143688;27;20092;-95
2022/12/01 08:09:36;;;;;;;13.93;7.20;;;;;;;6.53;79.73;98651.72;5135105;27;20100;-93
2022/12/01 08:12:02;;;;;;;12.38;6.90;;;;;;;6.70;79.21;98651.47;5146123;27;20070;-94
2022/12/01 08:14:28;;;;;;;16.40;7.50;;;;;;;6.70;77.64;98639.16;5161535;27;20472;-94
2022/12/01 08:16:54;;;;;;;14.30;7.15;;;;;;;6.91;77.43;98630.03;5133315;27;20111;-95
2022/12/01 08:19:21;;;;;;;17.27;7.15;;;;;;;6.99;76.22;98630.81;5157626;27;20141;-94
2022/12/01 08:21:47;;;;;;;15.48;6.95;;;;;;;7.08;76.06;98624.50;5134565;27;20043;-95
2022/12/01 08:24:13;;;;;;;15.20;7.82;;;;;;;7.05;74.89;98624.56;5155902;27;20102;-96
2022/12/01 08:26:39;;;;;;;12.48;7.35;;;;;;;7.14;74.60;98627.06;5130779;27;20096;-96
2022/12/01 08:29:05;;;;;;;13.30;7.40;;;;;;;7.38;75.36;98646.94;5148016;27;20091;-95
2022/12/01 08:31:34;;;;;;;17.48;7.45;;;;;;;7.44;74.23;98640.69;5139710;27;20467;-96
2022/12/01 08:34:00;;;;;;;13.65;7.55;;;;;;;7.49;74.21;98649.41;5144000;27;20038;-96
2022/12/01 08:36:27;;;;;;;12.85;7.00;;;;;;;7.63;73.21;98608.63;5139261;27;20050;-95
2022/12/01 08:38:54;;;;;;;14.85;7.28;;;;;;;7.79;71.69;98620.69;5138444;27;20043;-96
2022/12/01 08:41:20;;;;;;;17.40;7.88;;;;;;;7.89;71.99;98631.97;5131141;27;20054;-94
2022/12/01 08:43:46;;;;;;;12.80;6.40;;;;;;;7.80;70.67;98622.41;5147287;27;20103;-95
2022/12/01 08:46:13;;;;;;;15.70;7.10;;;;;;;7.87;71.85;98650.53;5137798;27;20442;-94
2022/12/01 08:48:39;;;;;;;12.23;6.63;;;;;;;7.88;72.10;98625.81;5153054;27;20448;-94
2022/12/01 08:51:07;;;;;;;12.80;7.32;;;;;;;7.99;71.95;98629.13;5132170;27;20040;-95
2022/12/01 08:53:38;;;;;;;11.23;6.68;;;;;;;8.16;70.18;98620.84;5138460;27;20050;-93
2022/12/01 08:56:07;;;;;;;12.00;6.85;;;;;;;8.41;70.16;98631.88;5137451;27;20043;-93
2022/12/01 08:58:32;;;;;;;12.73;7.80;;;;;;;8.35;69.26;98633.72;5138740;27;20066;-93
2022/12/01 09:01:03;;;;;;;13.95;7.30;;;;;;;8.19;69.87;98646.41;5142296;27;20103;-95
2022/12/01 09:03:30;;;;;;;14.32;7.55;;;;;;;8.04;71.49;98618.44;5138950;27;20104;-94
2022/12/01 09:06:01;;;;;;;15.10;7.85;;;;;;;8.46;69.95;98649.44;5143910;27;20043;-94
2022/12/01 09:08:30;;;;;;;12.98;7.65;;;;;;;8.19;70.27;98618.13;5141857;27;20488;-95
2022/12/01 09:10:58;;;;;;;18.50;8.70;;;;;;;8.16;70.08;98633.22;5134707;27;20509;-95
2022/12/01 09:13:24;;;;;;;14.07;7.82;;;;;;;8.11;70.92;98635.97;5139826;27;20133;-94
2022/12/01 09:15:55;;;;;;;14.75;8.05;;;;;;;8.22;70.94;98646.34;5134135;27;20041;-95
2022/12/01 09:18:21;;;;;;;16.08;8.07;;;;;;;8.41;70.56;98641.56;5132644;27;20044;-94
2022/12/01 09:20:47;;;;;;;17.85;7.53;;;;;;;8.42;71.31;98643.34;5140998;27;20438;-94
2022/12/01 09:23:12;;;;;;;15.57;7.65;;;;;;;8.48;69.84;98637.03;5139792;27;20105;-94
2022/12/01 09:25:38;;;;;;;15.57;8.57;;;;;;;8.69;69.85;98636.56;5136192;27;20035;-94
2022/12/01 09:28:06;;;;;;;18.02;8.52;;;;;;;8.69;69.49;98631.25;5129189;27;20095;-95
2022/12/01 09:30:33;;;;;;;13.48;7.22;;;;;;;8.82;69.31;98635.38;5141652;27;20058;-94
2022/12/01 09:32:59;;;;;;;15.52;7.93;;;;;;;8.81;68.91;98625.69;5140421;27;20040;-96
2022/12/01 09:35:25;;;;;;;12.68;7.70;;;;;;;8.91;69.50;98633.44;5140042;27;20062;-96
2022/12/01 09:37:51;;;;;;;13.45;7.28;;;;;;;8.71;68.69;98621.50;5132014;27;20045;-95
2022/12/01 09:40:17;;;;;;;10.93;6.70;;;;;;;8.79;68.16;98616.03;5144852;27;20097;-96
2022/12/01 09:42:46;;;;;;;11.20;6.25;;;;;;;8.82;67.82;98616.81;5132406;27;20063;-93
2022/12/01 09:45:23;;;;;;;12.63;7.50;;;;;;;9.03;67.40;98649.09;5136116;27;20042;-96
2022/12/01 09:47:49;;;;;;;11.50;6.57;;;;;;;8.97;67.93;98634.19;5127402;27;20523;-94
2022/12/01 09:50:20;;;;;;;12.23;6.45;;;;;;;8.98;67.95;98632.41;5136983;27;20060;-95
2022/12/01 09:52:52;;;;;;;8.90;6.03;;;;;;;8.92;67.51;98622.81;5138649;27;20500;-95
2022/12/01 09:55:22;;;;;;;12.77;6.55;;;;;;;9.08;68.07;98638.38;5132428;27;20092;-94
2022/12/01 09:57:49;;;;;;;9.50;6.20;;;;;;;9.25;67.45;98642.38;5142112;27;20039;-95
2022/12/01 10:00:19;;;;;;;10.73;6.93;;;;;;;8.93;67.02;98618.38;5141647;27;20603;-94
2022/12/01 10:02:52;;;;;;;14.40;6.30;;;;;;;8.92;68.55;98620.16;5125731;27;20038;-94
2022/12/01 10:05:20;;;;;;;9.48;5.68;;;;;;;8.83;67.70;98604.47;5135272;27;20035;-94
2022/12/01 10:07:51;;;;;;;11.15;6.38;;;;;;;8.86;69.14;98612.34;5135583;27;20069;-94
2022/12/01 10:10:23;;;;;;;9.57;6.07;;;;;;;8.89;68.57;98606.97;5144033;27;20129;-94
2022/12/01 10:12:49;;;;;;;9.13;5.82;;;;;;;8.93;68.34;98598.03;5128163;27;20039;-95
2022/12/01 10:15:26;;;;;;;12.40;6.75;;;;;;;8.89;69.38;98629.94;5118895;27;20039;-95
2022/12/01 10:18:04;;;;;;;13.38;7.05;;;;;;;8.59;70.04;98611.19;5141624;27;20051;-95
2022/12/01 10:20:37;;;;;;;12.55;6.88;;;;;;;8.43;70.43;98600.88;5145832;27;20065;-95
2022/12/01 10:23:19;;;;;;;15.05;7.18;;;;;;;8.49;70.45;98606.97;5133799;27;20134;-94
2022/12/01 10:25:54;;;;;;;11.18;6.82;;;;;;;8.51;70.32;98605.16;5125047;27;20049;-95
2022/12/01 10:28:41;;;;;;;12.52;6.53;;;;;;;8.58;70.60;98610.28;5131587;27;20036;-95
2022/12/01 10:31:17;;;;;;;9.88;5.80;;;;;;;8.52;70.52;98583.06;5138230;27;20083;-94
2022/12/01 10:33:55;;;;;;;10.02;6.47;;;;;;;8.74;68.77;98609.94;5137323;27;20125;-95
2022/12/01 10:36:22;;;;;;;12.45;6.60;;;;;;;8.78;68.84;98599.28;5141594;27;20040;-95
2022/12/01 10:38:51;;;;;;;10.18;6.53;;;;;;;8.73;69.54;98587.88;5137613;27;20043;-95
2022/12/01 10:41:23;;;;;;;11.93;6.43;;;;;;;8.77;69.09;98576.31;5143630;27;20043;-94
2022/12/01 10:43:52;;;;;;;11.80;6.68;;;;;;;8.99;69.07;98607.63;5146195;27;20091;-94
2022/12/01 10:46:28;;;;;;;10.45;6.57;;;;;;;8.95;69.16;98616.56;5140967;27;20039;-93
2022/12/01 10:48:55;;;;;;;10.07;6.40;;;;;;;8.77;69.75;98592.22;5134523;27;20031;-94
2022/12/01 10:51:22;;;;;;;10.65;6.43;;;;;;;8.84;69.88;98593.81;5141143;27;20066;-95
2022/12/01 10:53:49;;;;;;;12.05;6.95;;;;;;;8.80;69.45;98581.56;5135770;27;20038;-93
2022/12/01 10:56:17;;;;;;;11.85;6.82;;;;;;;8.89;68.67;98579.56;5136167;27;20090;-94
2022/12/01 10:58:46;;;;;;;12.52;7.20;;;;;;;8.82;69.86;98571.75;5135535;27;20485;-95
2022/12/01 11:01:20;;;;;;;13.23;7.63;;;;;;;9.09;68.08;98579.97;5130019;27;20047;-94
2022/12/01 11:03:53;;;;;;;13.05;6.60;;;;;;;9.28;67.04;98590.13;5141238;27;20035;-93
2022/12/01 11:06:23;;;;;;;12.20;7.18;;;;;;;9.29;66.42;98568.00;5134426;27;20557;-94
2022/12/01 11:08:52;;;;;;;10.07;6.30;;;;;;;9.43;66.40;98572.06;5130350;27;20105;-95
2022/12/01 11:11:25;;;;;;;;;;;;;;;9.58;65.03;98580.53;5140413;27;20047;-93
2022/12/01 11:13:52;;;;;;;10.27;5.90;;;;;;;9.25;65.40;98543.31;5135279;27;20010;-93
2022/12/01 11:16:35;;;;;;;10.68;6.10;;;;;;;9.15;65.31;98557.72;5137863;27;20484;-95
2022/12/01 11:19:16;;;;;;;10.25;5.88;;;;;;;9.28;65.33;98568.91;5125436;27;20043;-94
2022/12/01 11:21:45;;;;;;;10.02;5.60;;;;;;;9.30;65.19;98562.66;5125610;27;20405;-94
2022/12/01 11:24:25;;;;;;;9.55;5.47;;;;;;;9.43;66.45;98579.13;5135266;27;20446;-95
2022/12/01 11:26:51;;;;;;;10.65;6.32;;;;;;;9.43;67.23;98550.84;5131414;27;20053;-93
2022/12/01 11:29:30;;;;;;;7.50;5.40;;;;;;;9.72;64.09;98578.38;5137519;27;20559;-94
2022/12/01 11:31:58;;;;;;;9.18;5.70;;;;;;;9.76;64.21;98566.78;5131220;27;20035;-93
2022/12/01 11:34:28;;;;;;;8.23;5.18;;;;;;;9.91;62.78;98575.22;5136252;27;20035;-95
2022/12/01 11:36:56;;;;;;;8.27;4.70;;;;;;;9.87;62.06;98563.81;5131561;27;20039;-94
2022/12/01 11:39:26;;;;;;;10.10;5.82;;;;;;;9.81;62.49;98545.41;5141420;27;20050;-92
2022/12/01 11:41:55;;;;;;;7.53;5.45;;;;;;;9.78;61.45;98559.63;5144941;27;20043;-95